• Join FlightAware (Why Join?)
  • Login
  • US Flag 
12:30PM EST


 

Airport Tracker/Info


-or-


 

Live Flight TrackerFlight Track Log ✈ SWA1471 ✈ 16-May-2013 ✈ KSNA - KSMF

Flight Track Log - Related Links

Times and Time Zones

All times are in EDT time to prevent confusion due to time zone crossing. See the SWA1471 flight status page for this flight to view local times or setup timezone preferences in your user account.

Time Position Orientation Groundspeed Altitude Reporting Facility
EDT Latitude Longitude Course Direction KTS MPH feet Rate Location/Type
03:07PM 33.6500 -117.8833 North 155 178 1,500  Level Southern California TRACON
03:09PM 33.5797 -117.9033 193° South 170 196 3,600 1,620 Climbing Los Angeles Center
03:10PM 33.5183 -117.9447 209° Southwest 238 274 5,900 3,120 Climbing Los Angeles Center
03:11PM 33.4514 -117.9925 211° Southwest 267 307 10,100 3,840 Climbing Los Angeles Center
03:12PM 33.3614 -118.0594 212° Southwest 312 359 14,000 3,600 Climbing Los Angeles Center
03:13PM 33.4126 -118.4167 North  Level FlightAware Approximate
03:13PM 33.3514 -118.1664 264° West 334 384 17,600  Level Los Angeles Center
03:14PM 33.3611 -118.2831 276° West 347 399 20,700 2,880 Climbing Los Angeles Center
03:15PM 33.3978 -118.3961 291° West 378 435 23,600 2,580 Climbing Los Angeles Center
03:16PM 33.5114 -118.4225 349° North 426 490 26,100 2,340 Climbing Los Angeles Center
03:17PM 33.6344 -118.4264 358° North 434 499 28,500 2,160 Climbing Los Angeles Center
03:18PM 33.7681 -118.4286 359° North 454 522 30,600 2,100 Climbing Los Angeles Center
03:19PM 33.8989 -118.4333 358° North 462 532 32,900 2,160 Climbing Los Angeles Center
03:20PM 34.0481 -118.4522 354° North 445 512 35,100 1,500 Climbing Los Angeles Center
03:21PM 34.1725 -118.4731 352° North 449 517 36,000 420 Climbing Los Angeles Center
03:22PM 34.2958 -118.4944 352° North 450 518 36,000 780 Level Los Angeles Center
03:23PM 34.4117 -118.5392 342° North 443 510 37,700 1,500 Climbing Los Angeles Center
03:24PM 34.5225 -118.5942 338° Northwest 433 498 39,200 1,080 Climbing Los Angeles Center
03:25PM 34.6550 -118.6614 337° Northwest 432 497 40,000 360 Climbing Los Angeles Center
03:27PM 34.7658 -118.7175 337° Northwest 433 498 40,000  Level Los Angeles Center
03:28PM 34.8772 -118.7725 338° Northwest 434 499 40,000  Level Los Angeles Center
03:29PM 34.9989 -118.8331 338° Northwest 432 497 40,000  Level Los Angeles Center
03:30PM 35.1100 -118.8903 337° Northwest 434 499 40,000  Level Los Angeles Center
03:31PM 35.2236 -118.9478 338° Northwest 446 513 40,000  Level Los Angeles Center
03:32PM 35.3358 -119.0053 337° Northwest 442 509 40,000  Level Los Angeles Center
03:33PM 35.4492 -119.0628 338° Northwest 443 510 40,000  Level Los Angeles Center
03:34PM 35.5864 -119.1333 337° Northwest 447 514 40,000  Level Los Angeles Center
03:35PM 35.6964 -119.1914 337° Northwest 436 502 40,000  Level Los Angeles Center
03:36PM 35.8092 -119.2489 338° Northwest 439 505 40,000  Level Los Angeles Center
03:37PM 35.9211 -119.3083 337° Northwest 439 505 40,000  Level Los Angeles Center
03:38PM 36.0328 -119.3667 337° Northwest 438 504 40,000  Level Los Angeles Center
03:39PM 36.1614 -119.4478 333° Northwest 435 501 40,000  Level Los Angeles Center
03:40PM 36.2664 -119.5214 331° Northwest 435 501 40,000 -180 Level Los Angeles Center
03:41PM 36.3711 -119.5961 330° Northwest 436 502 39,700 -660 Descending Los Angeles Center
03:42PM 36.4756 -119.6708 330° Northwest 435 501 38,700 -1,020 Descending Los Angeles Center
03:43PM 36.5997 -119.7572 331° Northwest 433 498 37,600 -960 Descending Oakland Center
03:44PM 36.7075 -119.8356 330° Northwest 448 516 36,700 -960 Descending Oakland Center
03:45PM 36.8158 -119.9122 330° Northwest 448 516 35,700 -1,020 Descending Oakland Center
03:46PM 36.9219 -119.9883 330° Northwest 443 510 34,700 -1,620 Descending Oakland Center
03:47PM 37.0247 -120.0631 330° Northwest 430 495 32,500 -2,160 Descending Oakland Center
03:48PM 37.1294 -120.1386 330° Northwest 417 480 30,300 -2,100 Descending Oakland Center
03:49PM 37.2278 -120.2106 330° Northwest 409 471 28,200 -2,040 Descending Oakland Center
03:50PM 37.3231 -120.2808 330° Northwest 398 458 26,200 -2,100 Descending Oakland Center
03:51PM 37.4339 -120.3572 331° Northwest 379 436 24,000 -2,340 Descending Oakland Center
03:52PM 37.5000 -120.4167 325° Northwest 370 426 22,100 -1,200 Descending Northern Cal TRACON
03:53PM 37.5667 -120.5000 315° West 361 415 22,000 -240 Descending Northern Cal TRACON
03:54PM 37.6500 -120.5667 328° Northwest 364 419 21,700 -540 Descending Northern Cal TRACON
03:54PM 37.6722 -120.5950 315° West 362 417 21,300 -1,740 Descending Oakland Center
03:55PM 37.7333 -120.6500 325° Northwest 357 411 20,000 -1,380 Descending Northern Cal TRACON
03:56PM 37.8000 -120.7333 315° West 355 409 19,000 -480 Descending Northern Cal TRACON
03:58PM 37.9028 -120.8278 324° Northwest 350 403 18,900 -540 Descending Oakland Center
03:59PM 37.9800 -120.9075 321° Northwest 357 411 17,800 -900 Descending Oakland Center
04:00PM 38.0583 -120.9858 322° Northwest 359 413 17,100 -360 Descending Oakland Center
04:01PM 38.1364 -121.0947 312° West 352 405 17,100 -120 Level Oakland Center
04:01PM 38.1667 -121.1333 315° West 349 402 17,000 -840 Descending Northern Cal TRACON
04:02PM 38.2167 -121.2167 307° West 335 386 15,900 -1,080 Descending Northern Cal TRACON
04:03PM 38.2833 -121.3167 310° West 335 386 14,900 -1,500 Descending Northern Cal TRACON
04:04PM 38.3500 -121.4000 316° Northwest 332 382 13,000 -1,800 Descending Northern Cal TRACON
04:05PM 38.4000 -121.4833 307° West 324 373 11,300 -1,380 Descending Northern Cal TRACON
04:06PM 38.4500 -121.5667 307° West 292 336 10,300 -1,200 Descending Northern Cal TRACON
04:07PM 38.5333 -121.6167 335° Northwest 282 325 8,900 -1,560 Descending Northern Cal TRACON
04:08PM 38.5689 -121.6481 325° Northwest 280 322 7,600 -1,620 Descending Oakland Center
04:09PM 38.6361 -121.6978 330° Northwest 278 320 6,100 -1,980 Descending Oakland Center
04:10PM 38.7083 -121.7022 357° North 260 299 3,600 -1,620 Descending Oakland Center
04:11PM 38.7600 -121.6850 15° North 220 253 2,800 -1,020 Descending Oakland Center
04:12PM 38.7744 -121.6308 71° East 177 204 1,600 -1,080 Descending Oakland Center
04:13PM 38.7428 -121.6008 144° Southeast 144 166 700 -780 Descending Oakland Center
04:14PM 38.7133 -121.6011 180° South 138 159 100 -600 Descending Oakland Center